Lakebay, WA

2:15 AM PDT on August 31, 2014 (GMT -0700)
Harstine Island | Change Station
CLOSE
Current Station
Personal Weather Station
Location: Shelton, WA
Elevation: 39 ft
Nearby Weather Stations

Elev 39 ft 47.29 °N, 122.86 °W | Updated 1 second ago

Mostly Cloudy
Mostly Cloudy
55.6 °F
Feels Like 55.6 °F
N
0.0
Wind Variable Wind from West
Gusts 0.0 mph

Today
High -- | Low -- °F
--% Chance of Precip.
Yesterday
High -- | Low -- °F
Precip. -- in
6:28 AM 7:52 PM
Waxing Crescent, 29% visible
Pressure 29.99 in
Visibility 10.0 miles
Clouds Overcast 1700 ft
Dew Point 55 °F
Humidity 98%
Rainfall 0.00 in
Snow Depth Not available.
UV 0 out of 12
Pollen 2.60 out of 12
PM2.5 Good
Flu Activity Not available.
METAR KTIW 310853Z AUTO 20007KT 10SM OVC017 14/12 A2999 RMK AO2 SLP155 T01440122 50004

More Conditions Fewer Conditions

Pressure 29.99 in
Visibility 10.0 miles
Clouds Overcast 1700 ft
Dew Point 55 °F
Humidity 98%
Rainfall 0.00 in
Snow Depth Not available.
UV 0 out of 12
Pollen 2.60 out of 12
PM2.5 Good
Flu Activity Not available.
METAR KTIW 310853Z AUTO 20007KT 10SM OVC017 14/12 A2999 RMK AO2 SLP155 T01440122 50004

More Conditions Fewer Conditions

10-Day Weather Forecast

Almanac

Astronomy

Aug. 31, 2014 Rise Set
Actual Time 6:28 AM PDT 7:52 PM PDT
Civil Twilight 5:57 AM PDT 8:24 PM PDT
Nautical Twilight 5:18 AM PDT 9:02 PM PDT
Astronomical Twilight 4:37 AM PDT 9:44 PM PDT
Moon 12:46 PM PDT 10:45 PM PDT
Length of Visible Light 14h 27m
Length of Day
13h 23m
Tomorrow will be 3m 16s shorter.
Waxing Crescent, 29% of the Moon is Illuminated
Today
Waxing Crescent
Sep 2
First Quarter
Sep 8
Full
Sep 15
Last Quarter
Sep 24
New

Today's Extremes

State Highs State Lows

Community

WunderPhotos

Upload Photos

1,748,834 photos uploaded!

Nearby

Air Quality

  Air Quality AQ Index Pollutant
Yesterday Good
PM2.5
Current Good
PM2.5
Sunday Good
OZONE
Sunday Good
PM2.5
Monday Good
OZONE
Monday Good
PM2.5
Tuesday Good
OZONE
Tuesday Good
PM2.5
Wednesday Good
OZONE
Wednesday Good
PM2.5

Snow Depth

Station Depth Elevation
Mount Crag 0 in 4050 ft
Dungeness 0 in 4100 ft
Rex River 0 in 4000 ft
Alpine Meadows 0 in 3500 ft
Meadows Pass 1 in 3500 ft

Earthquake Activity

City Distance Mag. Time & Date
No recent earthquake activity has been reported nearby.
Minimum magnitude displayed is 2.5.

Coastal Water Temperatures

Place Temperature
Port Townsend, WA 53.1 °F
Seattle, WA 55.9 °F
Friday Harbor, WA 53.1 °F
Tacoma, WA 55.9 °F

Nearby Weather Stations